sensor_id;sensor_type;location;lat;lon;timestamp;temperature;humidity
3017;DHT22;1518;52.408;13.060;2023-02-03T00:00:12;17.20;59.90
3017;DHT22;1518;52.408;13.060;2023-02-03T00:03:01;17.20;60.00
3017;DHT22;1518;52.408;13.060;2023-02-03T00:05:49;17.20;60.40
3017;DHT22;1518;52.408;13.060;2023-02-03T00:08:37;17.20;60.30
3017;DHT22;1518;52.408;13.060;2023-02-03T00:11:26;17.30;66.90
3017;DHT22;1518;52.408;13.060;2023-02-03T00:14:16;17.10;60.30
3017;DHT22;1518;52.408;13.060;2023-02-03T00:17:04;17.20;60.50
3017;DHT22;1518;52.408;13.060;2023-02-03T00:19:53;17.10;60.40
3017;DHT22;1518;52.408;13.060;2023-02-03T00:22:41;17.10;60.50
3017;DHT22;1518;52.408;13.060;2023-02-03T00:25:29;17.10;60.80
3017;DHT22;1518;52.408;13.060;2023-02-03T00:28:17;17.10;61.00
3017;DHT22;1518;52.408;13.060;2023-02-03T00:31:12;17.10;60.80
3017;DHT22;1518;52.408;13.060;2023-02-03T00:34:01;17.10;60.30
3017;DHT22;1518;52.408;13.060;2023-02-03T00:36:50;17.20;61.00
3017;DHT22;1518;52.408;13.060;2023-02-03T00:39:38;17.20;61.10
3017;DHT22;1518;52.408;13.060;2023-02-03T00:42:26;17.10;61.10
3017;DHT22;1518;52.408;13.060;2023-02-03T00:45:15;17.20;61.30
3017;DHT22;1518;52.408;13.060;2023-02-03T00:48:03;17.20;61.30
3017;DHT22;1518;52.408;13.060;2023-02-03T00:50:52;17.20;61.40
3017;DHT22;1518;52.408;13.060;2023-02-03T00:53:41;17.10;61.20
3017;DHT22;1518;52.408;13.060;2023-02-03T00:56:29;17.20;61.30
3017;DHT22;1518;52.408;13.060;2023-02-03T00:59:17;17.20;61.30
3017;DHT22;1518;52.408;13.060;2023-02-03T01:02:06;17.20;68.90
3017;DHT22;1518;52.408;13.060;2023-02-03T01:04:54;17.20;61.40
3017;DHT22;1518;52.408;13.060;2023-02-03T01:07:42;17.20;61.40
3017;DHT22;1518;52.408;13.060;2023-02-03T01:10:31;17.20;61.40
3017;DHT22;1518;52.408;13.060;2023-02-03T01:13:19;17.20;61.40
3017;DHT22;1518;52.408;13.060;2023-02-03T01:16:08;17.10;61.40
3017;DHT22;1518;52.408;13.060;2023-02-03T01:18:56;17.10;61.50
3017;DHT22;1518;52.408;13.060;2023-02-03T01:21:44;17.10;61.50
3017;DHT22;1518;52.408;13.060;2023-02-03T01:24:32;17.10;61.50
3017;DHT22;1518;52.408;13.060;2023-02-03T01:27:22;17.10;61.60
3017;DHT22;1518;52.408;13.060;2023-02-03T01:30:11;17.00;61.60
3017;DHT22;1518;52.408;13.060;2023-02-03T01:32:59;17.10;61.70
3017;DHT22;1518;52.408;13.060;2023-02-03T01:35:47;17.10;61.80
3017;DHT22;1518;52.408;13.060;2023-02-03T01:38:36;17.10;61.80
3017;DHT22;1518;52.408;13.060;2023-02-03T01:41:26;17.10;61.80
3017;DHT22;1518;52.408;13.060;2023-02-03T01:44:37;17.00;61.70
3017;DHT22;1518;52.408;13.060;2023-02-03T01:47:29;17.10;61.80
3017;DHT22;1518;52.408;13.060;2023-02-03T01:50:20;17.20;61.80
3017;DHT22;1518;52.408;13.060;2023-02-03T01:53:10;17.20;61.60
3017;DHT22;1518;52.408;13.060;2023-02-03T01:56:00;17.30;61.70
3017;DHT22;1518;52.408;13.060;2023-02-03T01:58:50;17.30;61.60
3017;DHT22;1518;52.408;13.060;2023-02-03T02:01:40;17.30;61.60
3017;DHT22;1518;52.408;13.060;2023-02-03T02:04:33;17.30;61.50
3017;DHT22;1518;52.408;13.060;2023-02-03T02:07:23;17.30;62.20
3017;DHT22;1518;52.408;13.060;2023-02-03T02:10:12;17.40;61.50
3017;DHT22;1518;52.408;13.060;2023-02-03T02:13:01;17.40;61.40
3017;DHT22;1518;52.408;13.060;2023-02-03T02:15:55;17.40;61.30
3017;DHT22;1518;52.408;13.060;2023-02-03T02:19:00;17.40;61.20
3017;DHT22;1518;52.408;13.060;2023-02-03T02:21:57;17.50;61.20
3017;DHT22;1518;52.408;13.060;2023-02-03T02:28:27;17.50;61.30
3017;DHT22;1518;52.408;13.060;2023-02-03T02:31:46;17.40;61.20
3017;DHT22;1518;52.408;13.060;2023-02-03T02:34:45;17.40;60.60
3017;DHT22;1518;52.408;13.060;2023-02-03T02:37:41;17.50;61.30
3017;DHT22;1518;52.408;13.060;2023-02-03T02:40:36;17.30;61.30
3017;DHT22;1518;52.408;13.060;2023-02-03T02:43:40;17.40;61.40
3017;DHT22;1518;52.408;13.060;2023-02-03T02:46:32;17.30;62.20
3017;DHT22;1518;52.408;13.060;2023-02-03T02:49:26;17.30;61.50
3017;DHT22;1518;52.408;13.060;2023-02-03T02:52:18;17.20;61.40
3017;DHT22;1518;52.408;13.060;2023-02-03T02:55:11;17.20;61.60
3017;DHT22;1518;52.408;13.060;2023-02-03T02:58:03;17.20;61.60
3017;DHT22;1518;52.408;13.060;2023-02-03T03:00:54;17.20;61.70
3017;DHT22;1518;52.408;13.060;2023-02-03T03:03:42;17.10;61.70
3017;DHT22;1518;52.408;13.060;2023-02-03T03:06:35;17.10;61.80
3017;DHT22;1518;52.408;13.060;2023-02-03T03:09:28;17.20;62.00
3017;DHT22;1518;52.408;13.060;2023-02-03T03:12:23;17.10;62.00
3017;DHT22;1518;52.408;13.060;2023-02-03T03:15:18;17.10;62.10
3017;DHT22;1518;52.408;13.060;2023-02-03T03:18:11;17.00;62.00
3017;DHT22;1518;52.408;13.060;2023-02-03T03:21:02;17.10;62.20
3017;DHT22;1518;52.408;13.060;2023-02-03T03:23:56;17.10;62.20
3017;DHT22;1518;52.408;13.060;2023-02-03T03:26:49;17.10;62.20
3017;DHT22;1518;52.408;13.060;2023-02-03T03:29:42;17.10;62.20
3017;DHT22;1518;52.408;13.060;2023-02-03T03:32:31;17.10;62.10
3017;DHT22;1518;52.408;13.060;2023-02-03T03:35:19;17.10;62.10
3017;DHT22;1518;52.408;13.060;2023-02-03T03:38:11;17.20;62.10
3017;DHT22;1518;52.408;13.060;2023-02-03T03:41:05;17.20;62.10
3017;DHT22;1518;52.408;13.060;2023-02-03T03:43:56;17.20;62.00
3017;DHT22;1518;52.408;13.060;2023-02-03T03:46:49;17.30;62.00
3017;DHT22;1518;52.408;13.060;2023-02-03T03:49:40;17.30;62.00
3017;DHT22;1518;52.408;13.060;2023-02-03T03:52:33;17.30;62.10
3017;DHT22;1518;52.408;13.060;2023-02-03T03:55:24;17.30;62.10
3017;DHT22;1518;52.408;13.060;2023-02-03T03:58:19;17.30;62.10
3017;DHT22;1518;52.408;13.060;2023-02-03T04:01:07;17.30;62.20
3017;DHT22;1518;52.408;13.060;2023-02-03T04:03:58;17.30;62.40
3017;DHT22;1518;52.408;13.060;2023-02-03T04:06:47;17.20;62.30
3017;DHT22;1518;52.408;13.060;2023-02-03T04:09:35;17.20;62.50
3017;DHT22;1518;52.408;13.060;2023-02-03T04:12:23;17.20;62.50
3017;DHT22;1518;52.408;13.060;2023-02-03T04:15:13;17.20;62.60
3017;DHT22;1518;52.408;13.060;2023-02-03T04:18:01;17.20;62.60
3017;DHT22;1518;52.408;13.060;2023-02-03T04:20:49;17.10;62.80
3017;DHT22;1518;52.408;13.060;2023-02-03T04:23:38;17.10;63.20
3017;DHT22;1518;52.408;13.060;2023-02-03T04:26:26;17.10;63.30
3017;DHT22;1518;52.408;13.060;2023-02-03T04:29:14;17.00;63.60
3017;DHT22;1518;52.408;13.060;2023-02-03T04:32:03;17.20;65.20
3017;DHT22;1518;52.408;13.060;2023-02-03T04:34:51;17.00;62.90
3017;DHT22;1518;52.408;13.060;2023-02-03T04:37:40;17.00;62.80
3017;DHT22;1518;52.408;13.060;2023-02-03T04:40:28;17.10;63.00
3017;DHT22;1518;52.408;13.060;2023-02-03T04:43:16;17.10;63.00
3017;DHT22;1518;52.408;13.060;2023-02-03T04:46:04;17.10;62.90
3017;DHT22;1518;52.408;13.060;2023-02-03T04:48:53;17.20;63.00
3017;DHT22;1518;52.408;13.060;2023-02-03T04:51:42;17.30;62.90
3017;DHT22;1518;52.408;13.060;2023-02-03T04:54:30;17.40;63.10
3017;DHT22;1518;52.408;13.060;2023-02-03T04:57:18;17.40;63.80
3017;DHT22;1518;52.408;13.060;2023-02-03T05:00:07;17.50;62.90
3017;DHT22;1518;52.408;13.060;2023-02-03T05:02:55;17.50;63.30
3017;DHT22;1518;52.408;13.060;2023-02-03T05:05:45;17.50;63.20
3017;DHT22;1518;52.408;13.060;2023-02-03T05:08:33;17.50;62.90
3017;DHT22;1518;52.408;13.060;2023-02-03T05:11:21;17.50;64.10
3017;DHT22;1518;52.408;13.060;2023-02-03T05:14:09;17.50;62.40
3017;DHT22;1518;52.408;13.060;2023-02-03T05:16:57;17.50;63.20
3017;DHT22;1518;52.408;13.060;2023-02-03T05:19:45;17.50;63.00
3017;DHT22;1518;52.408;13.060;2023-02-03T05:22:34;17.60;63.40
3017;DHT22;1518;52.408;13.060;2023-02-03T05:25:22;17.50;63.00
3017;DHT22;1518;52.408;13.060;2023-02-03T05:28:11;17.50;63.00
3017;DHT22;1518;52.408;13.060;2023-02-03T05:31:00;17.50;63.30
3017;DHT22;1518;52.408;13.060;2023-02-03T05:33:48;17.50;63.20
3017;DHT22;1518;52.408;13.060;2023-02-03T05:36:36;17.50;63.20
3017;DHT22;1518;52.408;13.060;2023-02-03T05:39:25;17.40;63.30
3017;DHT22;1518;52.408;13.060;2023-02-03T05:42:13;17.40;63.70
3017;DHT22;1518;52.408;13.060;2023-02-03T05:45:01;17.40;63.60
3017;DHT22;1518;52.408;13.060;2023-02-03T05:47:49;17.40;63.60
3017;DHT22;1518;52.408;13.060;2023-02-03T05:50:37;17.40;63.60
3017;DHT22;1518;52.408;13.060;2023-02-03T05:53:25;17.40;63.90
3017;DHT22;1518;52.408;13.060;2023-02-03T05:56:15;17.30;65.40
3017;DHT22;1518;52.408;13.060;2023-02-03T05:59:04;17.30;64.50
3017;DHT22;1518;52.408;13.060;2023-02-03T06:04:41;17.20;63.30
3017;DHT22;1518;52.408;13.060;2023-02-03T06:07:29;17.20;64.00
3017;DHT22;1518;52.408;13.060;2023-02-03T06:10:17;17.30;64.00
3017;DHT22;1518;52.408;13.060;2023-02-03T06:13:12;17.20;63.80
3017;DHT22;1518;52.408;13.060;2023-02-03T06:16:00;17.30;64.10
3017;DHT22;1518;52.408;13.060;2023-02-03T06:18:48;17.30;65.10
3017;DHT22;1518;52.408;13.060;2023-02-03T06:21:36;17.40;64.60
3017;DHT22;1518;52.408;13.060;2023-02-03T06:24:24;17.50;64.50
3017;DHT22;1518;52.408;13.060;2023-02-03T06:27:12;17.40;64.20
3017;DHT22;1518;52.408;13.060;2023-02-03T06:30:03;17.50;64.00
3017;DHT22;1518;52.408;13.060;2023-02-03T06:32:51;17.40;63.70
3017;DHT22;1518;52.408;13.060;2023-02-03T06:35:39;17.50;64.00
3017;DHT22;1518;52.408;13.060;2023-02-03T06:38:27;17.50;64.20
3017;DHT22;1518;52.408;13.060;2023-02-03T06:41:15;17.50;64.70
3017;DHT22;1518;52.408;13.060;2023-02-03T06:44:03;17.50;64.20
3017;DHT22;1518;52.408;13.060;2023-02-03T06:46:52;17.50;64.10
3017;DHT22;1518;52.408;13.060;2023-02-03T06:49:42;17.50;64.50
3017;DHT22;1518;52.408;13.060;2023-02-03T06:52:30;17.60;72.70
3017;DHT22;1518;52.408;13.060;2023-02-03T06:55:18;17.50;64.20
3017;DHT22;1518;52.408;13.060;2023-02-03T06:58:06;17.40;64.30
3017;DHT22;1518;52.408;13.060;2023-02-03T07:00:54;17.40;64.20
3017;DHT22;1518;52.408;13.060;2023-02-03T07:03:44;17.40;64.30
3017;DHT22;1518;52.408;13.060;2023-02-03T07:06:32;17.30;65.60
3017;DHT22;1518;52.408;13.060;2023-02-03T07:09:20;17.30;64.40
3017;DHT22;1518;52.408;13.060;2023-02-03T07:12:09;17.30;64.30
3017;DHT22;1518;52.408;13.060;2023-02-03T07:14:57;17.30;64.70
3017;DHT22;1518;52.408;13.060;2023-02-03T07:17:46;17.20;64.70
3017;DHT22;1518;52.408;13.060;2023-02-03T07:20:41;17.20;64.80
3017;DHT22;1518;52.408;13.060;2023-02-03T07:23:29;17.30;64.90
3017;DHT22;1518;52.408;13.060;2023-02-03T07:26:17;17.30;64.80
3017;DHT22;1518;52.408;13.060;2023-02-03T07:29:05;17.40;64.70
3017;DHT22;1518;52.408;13.060;2023-02-03T07:31:53;17.40;64.40
3017;DHT22;1518;52.408;13.060;2023-02-03T07:34:41;17.40;64.30
3017;DHT22;1518;52.408;13.060;2023-02-03T07:37:31;17.50;64.90
3017;DHT22;1518;52.408;13.060;2023-02-03T07:40:19;17.50;64.50
3017;DHT22;1518;52.408;13.060;2023-02-03T07:43:07;17.60;64.60
3017;DHT22;1518;52.408;13.060;2023-02-03T07:45:55;17.60;64.70
3017;DHT22;1518;52.408;13.060;2023-02-03T07:48:43;17.70;65.50
3017;DHT22;1518;52.408;13.060;2023-02-03T07:51:31;17.80;64.60
3017;DHT22;1518;52.408;13.060;2023-02-03T07:54:21;17.80;64.90
3017;DHT22;1518;52.408;13.060;2023-02-03T07:57:09;17.80;64.80
3017;DHT22;1518;52.408;13.060;2023-02-03T07:59:57;17.90;64.70
3017;DHT22;1518;52.408;13.060;2023-02-03T08:02:45;17.90;65.10
3017;DHT22;1518;52.408;13.060;2023-02-03T08:05:33;17.80;65.00
3017;DHT22;1518;52.408;13.060;2023-02-03T08:08:21;17.80;64.90
3017;DHT22;1518;52.408;13.060;2023-02-03T08:11:11;17.70;64.80
3017;DHT22;1518;52.408;13.060;2023-02-03T08:13:59;17.70;65.00
3017;DHT22;1518;52.408;13.060;2023-02-03T08:16:47;17.70;65.20
3017;DHT22;1518;52.408;13.060;2023-02-03T08:19:35;17.70;65.90
3017;DHT22;1518;52.408;13.060;2023-02-03T08:22:23;17.50;68.20
3017;DHT22;1518;52.408;13.060;2023-02-03T08:25:11;17.60;65.90
3017;DHT22;1518;52.408;13.060;2023-02-03T08:28:01;17.70;66.00
3017;DHT22;1518;52.408;13.060;2023-02-03T08:30:49;17.60;66.20
3017;DHT22;1518;52.408;13.060;2023-02-03T08:33:37;17.60;66.10
3017;DHT22;1518;52.408;13.060;2023-02-03T08:36:25;17.60;66.10
3017;DHT22;1518;52.408;13.060;2023-02-03T08:39:14;17.50;66.40
3017;DHT22;1518;52.408;13.060;2023-02-03T08:42:02;17.50;66.20
3017;DHT22;1518;52.408;13.060;2023-02-03T08:44:52;17.50;66.50
3017;DHT22;1518;52.408;13.060;2023-02-03T08:47:40;17.40;66.80
3017;DHT22;1518;52.408;13.060;2023-02-03T08:50:28;17.40;66.40
3017;DHT22;1518;52.408;13.060;2023-02-03T08:53:16;17.40;67.30
3017;DHT22;1518;52.408;13.060;2023-02-03T08:56:05;17.50;66.90
3017;DHT22;1518;52.408;13.060;2023-02-03T08:58:53;17.40;66.60
3017;DHT22;1518;52.408;13.060;2023-02-03T09:01:43;17.50;67.20
3017;DHT22;1518;52.408;13.060;2023-02-03T09:04:34;17.50;67.40
3017;DHT22;1518;52.408;13.060;2023-02-03T09:07:22;18.20;67.60
3017;DHT22;1518;52.408;13.060;2023-02-03T09:10:11;17.60;67.30
3017;DHT22;1518;52.408;13.060;2023-02-03T09:12:59;17.70;66.80
3017;DHT22;1518;52.408;13.060;2023-02-03T09:15:47;17.80;66.80
3017;DHT22;1518;52.408;13.060;2023-02-03T09:18:36;17.80;66.70
3017;DHT22;1518;52.408;13.060;2023-02-03T09:21:24;17.90;66.80
3017;DHT22;1518;52.408;13.060;2023-02-03T09:24:31;17.80;66.80
3017;DHT22;1518;52.408;13.060;2023-02-03T09:27:19;17.80;67.10
3017;DHT22;1518;52.408;13.060;2023-02-03T09:30:08;17.80;66.70
3017;DHT22;1518;52.408;13.060;2023-02-03T09:32:56;17.80;67.20
3017;DHT22;1518;52.408;13.060;2023-02-03T09:35:52;17.80;67.30
3017;DHT22;1518;52.408;13.060;2023-02-03T09:38:40;17.80;67.60
3017;DHT22;1518;52.408;13.060;2023-02-03T09:41:43;17.70;67.60
3017;DHT22;1518;52.408;13.060;2023-02-03T09:44:40;17.70;68.30
3017;DHT22;1518;52.408;13.060;2023-02-03T09:47:34;17.60;68.00
3017;DHT22;1518;52.408;13.060;2023-02-03T09:50:24;17.60;68.50
3017;DHT22;1518;52.408;13.060;2023-02-03T09:53:22;17.60;68.00
3017;DHT22;1518;52.408;13.060;2023-02-03T09:56:19;17.60;68.60
3017;DHT22;1518;52.408;13.060;2023-02-03T09:59:10;17.50;68.40
3017;DHT22;1518;52.408;13.060;2023-02-03T10:02:04;17.60;68.60
3017;DHT22;1518;52.408;13.060;2023-02-03T10:05:05;17.50;68.40
3017;DHT22;1518;52.408;13.060;2023-02-03T10:08:01;17.50;68.90
3017;DHT22;1518;52.408;13.060;2023-02-03T10:11:02;17.50;68.40
3017;DHT22;1518;52.408;13.060;2023-02-03T10:14:07;17.50;68.60
3017;DHT22;1518;52.408;13.060;2023-02-03T10:17:06;17.50;69.00
3017;DHT22;1518;52.408;13.060;2023-02-03T10:20:02;17.40;68.70
3017;DHT22;1518;52.408;13.060;2023-02-03T10:22:52;17.50;68.70
3017;DHT22;1518;52.408;13.060;2023-02-03T10:25:43;17.50;69.30
3017;DHT22;1518;52.408;13.060;2023-02-03T10:28:38;17.50;68.60
3017;DHT22;1518;52.408;13.060;2023-02-03T10:31:29;17.50;68.80
3017;DHT22;1518;52.408;13.060;2023-02-03T10:34:19;17.50;68.30
3017;DHT22;1518;52.408;13.060;2023-02-03T10:37:13;17.60;69.70
3017;DHT22;1518;52.408;13.060;2023-02-03T10:40:11;17.60;68.70
3017;DHT22;1518;52.408;13.060;2023-02-03T10:42:59;17.50;68.80
3017;DHT22;1518;52.408;13.060;2023-02-03T10:46:03;17.50;69.40
3017;DHT22;1518;52.408;13.060;2023-02-03T10:48:51;17.50;70.00
3017;DHT22;1518;52.408;13.060;2023-02-03T10:51:43;17.50;69.80
3017;DHT22;1518;52.408;13.060;2023-02-03T10:54:34;17.50;69.80
3017;DHT22;1518;52.408;13.060;2023-02-03T10:57:24;17.50;70.00
3017;DHT22;1518;52.408;13.060;2023-02-03T11:00:21;17.50;69.60
3017;DHT22;1518;52.408;13.060;2023-02-03T11:03:22;17.40;70.50
3017;DHT22;1518;52.408;13.060;2023-02-03T11:06:13;17.50;70.00
3017;DHT22;1518;52.408;13.060;2023-02-03T11:09:01;17.40;70.10
3017;DHT22;1518;52.408;13.060;2023-02-03T11:12:12;17.40;69.20
3017;DHT22;1518;52.408;13.060;2023-02-03T11:15:04;17.30;69.10
3017;DHT22;1518;52.408;13.060;2023-02-03T11:17:53;17.30;68.70
3017;DHT22;1518;52.408;13.060;2023-02-03T11:20:42;17.20;68.50
3017;DHT22;1518;52.408;13.060;2023-02-03T11:23:30;17.20;68.50
3017;DHT22;1518;52.408;13.060;2023-02-03T11:26:22;17.30;68.50
3017;DHT22;1518;52.408;13.060;2023-02-03T11:29:16;17.20;68.50
3017;DHT22;1518;52.408;13.060;2023-02-03T11:32:15;17.20;68.60
3017;DHT22;1518;52.408;13.060;2023-02-03T11:35:13;17.10;68.40
3017;DHT22;1518;52.408;13.060;2023-02-03T11:38:03;17.20;68.40
3017;DHT22;1518;52.408;13.060;2023-02-03T11:40:57;17.20;68.30
3017;DHT22;1518;52.408;13.060;2023-02-03T11:43:47;17.30;68.30
3017;DHT22;1518;52.408;13.060;2023-02-03T11:46:36;17.30;68.90
3017;DHT22;1518;52.408;13.060;2023-02-03T11:49:52;17.40;68.00
3017;DHT22;1518;52.408;13.060;2023-02-03T11:53:04;17.40;67.80
3017;DHT22;1518;52.408;13.060;2023-02-03T11:56:04;17.50;67.60
3017;DHT22;1518;52.408;13.060;2023-02-03T11:59:04;17.50;67.30
3017;DHT22;1518;52.408;13.060;2023-02-03T12:02:22;17.60;67.20
3017;DHT22;1518;52.408;13.060;2023-02-03T12:05:29;17.60;67.10
3017;DHT22;1518;52.408;13.060;2023-02-03T12:08:30;17.60;67.10
3017;DHT22;1518;52.408;13.060;2023-02-03T12:11:31;17.60;67.00
3017;DHT22;1518;52.408;13.060;2023-02-03T12:14:31;17.50;66.90
3017;DHT22;1518;52.408;13.060;2023-02-03T12:17:33;17.50;67.10
3017;DHT22;1518;52.408;13.060;2023-02-03T12:20:34;17.50;67.10
3017;DHT22;1518;52.408;13.060;2023-02-03T12:23:39;17.50;67.10
3017;DHT22;1518;52.408;13.060;2023-02-03T12:26:33;17.50;67.10
3017;DHT22;1518;52.408;13.060;2023-02-03T12:29:26;17.50;67.10
3017;DHT22;1518;52.408;13.060;2023-02-03T12:32:24;17.30;74.70
3017;DHT22;1518;52.408;13.060;2023-02-03T12:35:17;17.40;66.50
3017;DHT22;1518;52.408;13.060;2023-02-03T12:38:12;17.40;67.10
3017;DHT22;1518;52.408;13.060;2023-02-03T12:41:09;17.30;67.00
3017;DHT22;1518;52.408;13.060;2023-02-03T12:44:03;17.30;67.00
3017;DHT22;1518;52.408;13.060;2023-02-03T12:46:55;17.30;67.00
3017;DHT22;1518;52.408;13.060;2023-02-03T12:49:47;17.20;66.80
3017;DHT22;1518;52.408;13.060;2023-02-03T12:52:41;17.20;66.90
3017;DHT22;1518;52.408;13.060;2023-02-03T12:55:35;17.20;67.00
3017;DHT22;1518;52.408;13.060;2023-02-03T12:58:30;17.20;67.00
3017;DHT22;1518;52.408;13.060;2023-02-03T13:01:22;17.10;66.80
3017;DHT22;1518;52.408;13.060;2023-02-03T13:04:17;17.20;66.80
3017;DHT22;1518;52.408;13.060;2023-02-03T13:07:08;17.20;66.90
3017;DHT22;1518;52.408;13.060;2023-02-03T13:10:02;17.20;66.60
3017;DHT22;1518;52.408;13.060;2023-02-03T13:12:54;17.20;66.60
3017;DHT22;1518;52.408;13.060;2023-02-03T13:15:46;17.30;66.70
3017;DHT22;1518;52.408;13.060;2023-02-03T13:18:38;17.30;66.40
3017;DHT22;1518;52.408;13.060;2023-02-03T13:21:28;17.40;66.50
3017;DHT22;1518;52.408;13.060;2023-02-03T13:24:16;17.40;66.50
3017;DHT22;1518;52.408;13.060;2023-02-03T13:27:16;17.40;66.50
3017;DHT22;1518;52.408;13.060;2023-02-03T13:30:26;17.30;66.50
3017;DHT22;1518;52.408;13.060;2023-02-03T13:33:45;17.40;74.00
3017;DHT22;1518;52.408;13.060;2023-02-03T13:40:27;17.30;66.40
3017;DHT22;1518;52.408;13.060;2023-02-03T13:43:22;17.20;73.20
3017;DHT22;1518;52.408;13.060;2023-02-03T13:46:27;17.30;66.50
3017;DHT22;1518;52.408;13.060;2023-02-03T13:49:22;17.30;66.50
3017;DHT22;1518;52.408;13.060;2023-02-03T13:52:23;17.20;66.40
3017;DHT22;1518;52.408;13.060;2023-02-03T13:55:26;17.20;66.40
3017;DHT22;1518;52.408;13.060;2023-02-03T13:58:20;17.20;66.50
3017;DHT22;1518;52.408;13.060;2023-02-03T14:01:30;17.10;66.50
3017;DHT22;1518;52.408;13.060;2023-02-03T14:04:51;17.10;66.60
3017;DHT22;1518;52.408;13.060;2023-02-03T14:07:40;17.10;66.70
3017;DHT22;1518;52.408;13.060;2023-02-03T14:10:28;17.00;66.70
3017;DHT22;1518;52.408;13.060;2023-02-03T14:13:19;16.80;73.20
3017;DHT22;1518;52.408;13.060;2023-02-03T14:16:22;17.00;66.30
3017;DHT22;1518;52.408;13.060;2023-02-03T14:19:12;17.00;66.30
3017;DHT22;1518;52.408;13.060;2023-02-03T14:22:04;17.00;66.60
3017;DHT22;1518;52.408;13.060;2023-02-03T14:24:55;17.00;65.70
3017;DHT22;1518;52.408;13.060;2023-02-03T14:27:44;17.00;66.20
3017;DHT22;1518;52.408;13.060;2023-02-03T14:30:32;17.10;66.20
3017;DHT22;1518;52.408;13.060;2023-02-03T14:33:20;16.80;73.70
3017;DHT22;1518;52.408;13.060;2023-02-03T14:36:26;16.80;71.00
3017;DHT22;1518;52.408;13.060;2023-02-03T14:39:32;17.00;65.80
3017;DHT22;1518;52.408;13.060;2023-02-03T14:42:36;17.00;66.40
3017;DHT22;1518;52.408;13.060;2023-02-03T14:45:39;17.00;65.60
3017;DHT22;1518;52.408;13.060;2023-02-03T14:52:02;17.00;65.90
3017;DHT22;1518;52.408;13.060;2023-02-03T14:55:09;17.00;65.90
3017;DHT22;1518;52.408;13.060;2023-02-03T14:58:05;17.00;65.60
3017;DHT22;1518;52.408;13.060;2023-02-03T15:00:55;17.00;65.90
3017;DHT22;1518;52.408;13.060;2023-02-03T15:04:19;17.00;65.90
3017;DHT22;1518;52.408;13.060;2023-02-03T15:07:07;17.00;65.40
3017;DHT22;1518;52.408;13.060;2023-02-03T15:09:55;16.90;65.50
3017;DHT22;1518;52.408;13.060;2023-02-03T15:12:46;16.90;65.60
3017;DHT22;1518;52.408;13.060;2023-02-03T15:15:37;16.90;65.90
3017;DHT22;1518;52.408;13.060;2023-02-03T15:18:29;16.80;66.10
3017;DHT22;1518;52.408;13.060;2023-02-03T15:21:19;16.80;66.00
3017;DHT22;1518;52.408;13.060;2023-02-03T15:24:12;16.80;66.30
3017;DHT22;1518;52.408;13.060;2023-02-03T15:27:01;16.80;66.30
3017;DHT22;1518;52.408;13.060;2023-02-03T15:29:51;16.90;66.00
3017;DHT22;1518;52.408;13.060;2023-02-03T15:32:41;16.90;65.80
3017;DHT22;1518;52.408;13.060;2023-02-03T15:35:33;17.00;66.20
3017;DHT22;1518;52.408;13.060;2023-02-03T15:38:26;17.00;66.30
3017;DHT22;1518;52.408;13.060;2023-02-03T15:41:20;17.00;65.60
3017;DHT22;1518;52.408;13.060;2023-02-03T15:44:16;17.10;65.30
3017;DHT22;1518;52.408;13.060;2023-02-03T15:47:25;17.10;65.40
3017;DHT22;1518;52.408;13.060;2023-02-03T15:50:26;17.20;65.10
3017;DHT22;1518;52.408;13.060;2023-02-03T15:53:19;17.30;71.90
3017;DHT22;1518;52.408;13.060;2023-02-03T15:56:18;17.30;64.90
3017;DHT22;1518;52.408;13.060;2023-02-03T15:59:18;17.30;65.00
3017;DHT22;1518;52.408;13.060;2023-02-03T16:02:14;17.30;65.00
3017;DHT22;1518;52.408;13.060;2023-02-03T16:05:17;17.30;64.80
3017;DHT22;1518;52.408;13.060;2023-02-03T16:08:42;17.20;65.00
3017;DHT22;1518;52.408;13.060;2023-02-03T16:11:34;17.20;65.10
3017;DHT22;1518;52.408;13.060;2023-02-03T16:14:32;17.20;65.10
3017;DHT22;1518;52.408;13.060;2023-02-03T16:17:26;17.20;66.10
3017;DHT22;1518;52.408;13.060;2023-02-03T16:20:23;17.20;65.40
3017;DHT22;1518;52.408;13.060;2023-02-03T16:23:18;17.00;67.30
3017;DHT22;1518;52.408;13.060;2023-02-03T16:26:16;17.10;65.30
3017;DHT22;1518;52.408;13.060;2023-02-03T16:29:14;17.10;65.30
3017;DHT22;1518;52.408;13.060;2023-02-03T16:32:26;17.00;65.30
3017;DHT22;1518;52.408;13.060;2023-02-03T16:35:33;17.00;65.50
3017;DHT22;1518;52.408;13.060;2023-02-03T16:38:43;17.00;65.70
3017;DHT22;1518;52.408;13.060;2023-02-03T16:41:54;17.00;65.70
3017;DHT22;1518;52.408;13.060;2023-02-03T16:45:02;16.90;65.70
3017;DHT22;1518;52.408;13.060;2023-02-03T16:48:09;16.90;66.00
3017;DHT22;1518;52.408;13.060;2023-02-03T16:51:16;17.00;66.20
3017;DHT22;1518;52.408;13.060;2023-02-03T16:54:04;16.90;66.00
3017;DHT22;1518;52.408;13.060;2023-02-03T16:56:52;17.00;66.10
3017;DHT22;1518;52.408;13.060;2023-02-03T16:59:44;17.00;65.90
3017;DHT22;1518;52.408;13.060;2023-02-03T17:02:32;17.10;65.90
3017;DHT22;1518;52.408;13.060;2023-02-03T17:05:20;17.00;65.90
3017;DHT22;1518;52.408;13.060;2023-02-03T17:08:10;17.10;65.70
3017;DHT22;1518;52.408;13.060;2023-02-03T17:11:03;17.10;65.70
3017;DHT22;1518;52.408;13.060;2023-02-03T17:13:52;17.20;65.60
3017;DHT22;1518;52.408;13.060;2023-02-03T17:16:40;17.20;65.50
3017;DHT22;1518;52.408;13.060;2023-02-03T17:19:28;17.20;65.20
3017;DHT22;1518;52.408;13.060;2023-02-03T17:22:16;17.40;64.90
3017;DHT22;1518;52.408;13.060;2023-02-03T17:25:06;17.30;64.90
3017;DHT22;1518;52.408;13.060;2023-02-03T17:27:54;17.30;64.60
3017;DHT22;1518;52.408;13.060;2023-02-03T17:30:43;17.30;64.60
3017;DHT22;1518;52.408;13.060;2023-02-03T17:33:32;17.30;64.70
3017;DHT22;1518;52.408;13.060;2023-02-03T17:36:21;17.30;64.70
3017;DHT22;1518;52.408;13.060;2023-02-03T17:39:09;17.30;64.70
3017;DHT22;1518;52.408;13.060;2023-02-03T17:42:16;17.30;64.80
3017;DHT22;1518;52.408;13.060;2023-02-03T17:45:22;17.20;64.80
3017;DHT22;1518;52.408;13.060;2023-02-03T17:48:27;17.30;64.70
3017;DHT22;1518;52.408;13.060;2023-02-03T17:51:33;17.20;64.80
3017;DHT22;1518;52.408;13.060;2023-02-03T17:54:39;17.10;64.90
3017;DHT22;1518;52.408;13.060;2023-02-03T17:57:28;17.10;65.10
3017;DHT22;1518;52.408;13.060;2023-02-03T18:00:19;17.10;65.00
3017;DHT22;1518;52.408;13.060;2023-02-03T18:03:07;17.20;73.30
3017;DHT22;1518;52.408;13.060;2023-02-03T18:05:55;17.00;65.30
3017;DHT22;1518;52.408;13.060;2023-02-03T18:08:44;17.00;65.40
3017;DHT22;1518;52.408;13.060;2023-02-03T18:11:33;16.90;65.50
3017;DHT22;1518;52.408;13.060;2023-02-03T18:14:23;16.90;65.70
3017;DHT22;1518;52.408;13.060;2023-02-03T18:17:11;16.90;65.70
3017;DHT22;1518;52.408;13.060;2023-02-03T18:19:59;16.90;65.70
3017;DHT22;1518;52.408;13.060;2023-02-03T18:22:49;16.90;65.80
3017;DHT22;1518;52.408;13.060;2023-02-03T18:25:37;16.90;65.90
3017;DHT22;1518;52.408;13.060;2023-02-03T18:28:26;16.90;65.80
3017;DHT22;1518;52.408;13.060;2023-02-03T18:31:15;17.00;65.70
3017;DHT22;1518;52.408;13.060;2023-02-03T18:34:04;17.00;65.70
3017;DHT22;1518;52.408;13.060;2023-02-03T18:36:52;17.00;65.50
3017;DHT22;1518;52.408;13.060;2023-02-03T18:39:40;17.10;65.50